sensor_id;sensor_type;location;lat;lon;timestamp;P1;durP1;ratioP1;P2;durP2;ratioP2
14141;SDS011;7151;52.246;4.820;2023-08-01T00:01:58;2.30;;;1.30;;
14141;SDS011;7151;52.246;4.820;2023-08-01T00:04:24;5.93;;;1.27;;
14141;SDS011;7151;52.246;4.820;2023-08-01T00:06:49;3.23;;;1.37;;
14141;SDS011;7151;52.246;4.820;2023-08-01T00:09:15;4.90;;;1.60;;
14141;SDS011;7151;52.246;4.820;2023-08-01T00:11:41;2.67;;;1.40;;
14141;SDS011;7151;52.246;4.820;2023-08-01T00:14:06;2.20;;;1.10;;
14141;SDS011;7151;52.246;4.820;2023-08-01T00:16:32;2.87;;;1.33;;
14141;SDS011;7151;52.246;4.820;2023-08-01T00:18:57;2.90;;;1.70;;
14141;SDS011;7151;52.246;4.820;2023-08-01T00:21:23;6.07;;;2.47;;
14141;SDS011;7151;52.246;4.820;2023-08-01T00:23:49;2.37;;;1.07;;
14141;SDS011;7151;52.246;4.820;2023-08-01T00:26:14;2.40;;;1.20;;
14141;SDS011;7151;52.246;4.820;2023-08-01T00:28:40;1.50;;;1.30;;
14141;SDS011;7151;52.246;4.820;2023-08-01T00:31:06;6.77;;;1.53;;
14141;SDS011;7151;52.246;4.820;2023-08-01T00:33:36;2.67;;;1.50;;
14141;SDS011;7151;52.246;4.820;2023-08-01T00:36:02;2.87;;;1.53;;
14141;SDS011;7151;52.246;4.820;2023-08-01T00:38:28;4.07;;;2.17;;
14141;SDS011;7151;52.246;4.820;2023-08-01T00:40:54;3.00;;;1.70;;
14141;SDS011;7151;52.246;4.820;2023-08-01T00:43:19;5.87;;;1.60;;
14141;SDS011;7151;52.246;4.820;2023-08-01T00:45:45;4.03;;;1.90;;
14141;SDS011;7151;52.246;4.820;2023-08-01T00:48:11;5.10;;;1.93;;
14141;SDS011;7151;52.246;4.820;2023-08-01T00:50:37;4.30;;;1.70;;
14141;SDS011;7151;52.246;4.820;2023-08-01T00:53:04;4.20;;;1.70;;
14141;SDS011;7151;52.246;4.820;2023-08-01T00:55:31;4.73;;;1.77;;
14141;SDS011;7151;52.246;4.820;2023-08-01T00:57:57;4.17;;;2.20;;
14141;SDS011;7151;52.246;4.820;2023-08-01T01:00:23;3.67;;;1.50;;
14141;SDS011;7151;52.246;4.820;2023-08-01T01:02:49;4.93;;;1.77;;
14141;SDS011;7151;52.246;4.820;2023-08-01T01:05:14;6.10;;;1.73;;
14141;SDS011;7151;52.246;4.820;2023-08-01T01:07:40;4.17;;;1.60;;
14141;SDS011;7151;52.246;4.820;2023-08-01T01:10:06;5.33;;;1.83;;
14141;SDS011;7151;52.246;4.820;2023-08-01T01:12:32;5.73;;;2.00;;
14141;SDS011;7151;52.246;4.820;2023-08-01T01:14:57;3.17;;;1.47;;
14141;SDS011;7151;52.246;4.820;2023-08-01T01:17:23;7.97;;;1.90;;
14141;SDS011;7151;52.246;4.820;2023-08-01T01:19:49;5.47;;;2.50;;
14141;SDS011;7151;52.246;4.820;2023-08-01T01:22:14;5.13;;;2.00;;
14141;SDS011;7151;52.246;4.820;2023-08-01T01:24:41;3.47;;;1.90;;
14141;SDS011;7151;52.246;4.820;2023-08-01T01:27:07;4.50;;;2.10;;
14141;SDS011;7151;52.246;4.820;2023-08-01T01:29:34;4.80;;;2.07;;
14141;SDS011;7151;52.246;4.820;2023-08-01T01:32:00;4.00;;;1.83;;
14141;SDS011;7151;52.246;4.820;2023-08-01T01:34:27;4.33;;;1.80;;
14141;SDS011;7151;52.246;4.820;2023-08-01T01:36:53;4.33;;;2.40;;
14141;SDS011;7151;52.246;4.820;2023-08-01T01:39:18;2.67;;;1.70;;
14141;SDS011;7151;52.246;4.820;2023-08-01T01:41:45;3.83;;;1.70;;
14141;SDS011;7151;52.246;4.820;2023-08-01T01:44:11;5.30;;;2.30;;
14141;SDS011;7151;52.246;4.820;2023-08-01T01:46:36;5.40;;;1.80;;
14141;SDS011;7151;52.246;4.820;2023-08-01T01:49:02;6.73;;;2.00;;
14141;SDS011;7151;52.246;4.820;2023-08-01T01:51:28;8.93;;;2.33;;
14141;SDS011;7151;52.246;4.820;2023-08-01T01:53:53;4.07;;;1.60;;
14141;SDS011;7151;52.246;4.820;2023-08-01T01:56:19;7.53;;;2.17;;
14141;SDS011;7151;52.246;4.820;2023-08-01T01:58:45;4.27;;;1.70;;
14141;SDS011;7151;52.246;4.820;2023-08-01T02:01:10;2.03;;;1.33;;
14141;SDS011;7151;52.246;4.820;2023-08-01T02:03:36;2.90;;;1.50;;
14141;SDS011;7151;52.246;4.820;2023-08-01T02:06:02;5.03;;;1.67;;
14141;SDS011;7151;52.246;4.820;2023-08-01T02:08:28;1.30;;;0.90;;
14141;SDS011;7151;52.246;4.820;2023-08-01T02:10:54;1.63;;;0.73;;
14141;SDS011;7151;52.246;4.820;2023-08-01T02:13:23;2.67;;;1.10;;
14141;SDS011;7151;52.246;4.820;2023-08-01T02:15:49;3.70;;;0.90;;
14141;SDS011;7151;52.246;4.820;2023-08-01T02:18:14;2.70;;;0.97;;
14141;SDS011;7151;52.246;4.820;2023-08-01T02:20:40;1.30;;;1.13;;
14141;SDS011;7151;52.246;4.820;2023-08-01T02:23:06;1.63;;;0.87;;
14141;SDS011;7151;52.246;4.820;2023-08-01T02:25:31;1.33;;;0.70;;
14141;SDS011;7151;52.246;4.820;2023-08-01T02:27:57;2.87;;;1.00;;
14141;SDS011;7151;52.246;4.820;2023-08-01T02:30:22;3.90;;;1.20;;
14141;SDS011;7151;52.246;4.820;2023-08-01T02:32:48;2.53;;;1.00;;
14141;SDS011;7151;52.246;4.820;2023-08-01T02:35:13;3.77;;;1.20;;
14141;SDS011;7151;52.246;4.820;2023-08-01T02:37:39;3.20;;;1.00;;
14141;SDS011;7151;52.246;4.820;2023-08-01T02:40:05;2.30;;;1.37;;
14141;SDS011;7151;52.246;4.820;2023-08-01T02:42:33;4.40;;;1.30;;
14141;SDS011;7151;52.246;4.820;2023-08-01T02:44:58;2.50;;;1.10;;
14141;SDS011;7151;52.246;4.820;2023-08-01T02:47:24;3.40;;;1.07;;
14141;SDS011;7151;52.246;4.820;2023-08-01T02:49:50;6.53;;;1.50;;
14141;SDS011;7151;52.246;4.820;2023-08-01T02:52:15;4.20;;;1.77;;
14141;SDS011;7151;52.246;4.820;2023-08-01T02:54:41;6.13;;;1.80;;
14141;SDS011;7151;52.246;4.820;2023-08-01T02:57:06;4.33;;;2.00;;
14141;SDS011;7151;52.246;4.820;2023-08-01T02:59:32;2.97;;;1.83;;
14141;SDS011;7151;52.246;4.820;2023-08-01T03:01:58;4.10;;;1.97;;
14141;SDS011;7151;52.246;4.820;2023-08-01T03:04:24;7.07;;;2.07;;
14141;SDS011;7151;52.246;4.820;2023-08-01T03:06:49;7.97;;;2.53;;
14141;SDS011;7151;52.246;4.820;2023-08-01T03:09:15;4.77;;;1.87;;
14141;SDS011;7151;52.246;4.820;2023-08-01T03:11:40;5.57;;;2.13;;
14141;SDS011;7151;52.246;4.820;2023-08-01T03:14:06;4.10;;;2.10;;
14141;SDS011;7151;52.246;4.820;2023-08-01T03:16:32;4.60;;;2.07;;
14141;SDS011;7151;52.246;4.820;2023-08-01T03:18:58;4.50;;;2.20;;
14141;SDS011;7151;52.246;4.820;2023-08-01T03:21:29;7.27;;;2.87;;
14141;SDS011;7151;52.246;4.820;2023-08-01T03:23:58;4.50;;;2.47;;
14141;SDS011;7151;52.246;4.820;2023-08-01T03:26:23;3.07;;;2.23;;
14141;SDS011;7151;52.246;4.820;2023-08-01T03:28:49;5.43;;;2.50;;
14141;SDS011;7151;52.246;4.820;2023-08-01T03:31:14;3.23;;;2.13;;
14141;SDS011;7151;52.246;4.820;2023-08-01T03:33:40;6.17;;;2.27;;
14141;SDS011;7151;52.246;4.820;2023-08-01T03:36:06;5.93;;;2.53;;
14141;SDS011;7151;52.246;4.820;2023-08-01T03:38:32;6.37;;;2.60;;
14141;SDS011;7151;52.246;4.820;2023-08-01T03:40:57;6.93;;;2.50;;
14141;SDS011;7151;52.246;4.820;2023-08-01T03:43:23;3.97;;;1.90;;
14141;SDS011;7151;52.246;4.820;2023-08-01T03:45:49;4.23;;;2.50;;
14141;SDS011;7151;52.246;4.820;2023-08-01T03:48:15;5.50;;;2.83;;
14141;SDS011;7151;52.246;4.820;2023-08-01T03:50:40;6.23;;;2.90;;
14141;SDS011;7151;52.246;4.820;2023-08-01T03:53:06;7.00;;;2.63;;
14141;SDS011;7151;52.246;4.820;2023-08-01T03:55:32;6.80;;;2.50;;
14141;SDS011;7151;52.246;4.820;2023-08-01T03:57:58;5.10;;;2.23;;
14141;SDS011;7151;52.246;4.820;2023-08-01T04:00:23;9.37;;;2.57;;
14141;SDS011;7151;52.246;4.820;2023-08-01T04:02:49;4.73;;;2.30;;
14141;SDS011;7151;52.246;4.820;2023-08-01T04:05:15;5.10;;;1.87;;
14141;SDS011;7151;52.246;4.820;2023-08-01T04:07:41;7.87;;;2.07;;
14141;SDS011;7151;52.246;4.820;2023-08-01T04:10:06;5.33;;;2.00;;
14141;SDS011;7151;52.246;4.820;2023-08-01T04:12:33;6.07;;;2.20;;
14141;SDS011;7151;52.246;4.820;2023-08-01T04:14:59;5.20;;;1.93;;
14141;SDS011;7151;52.246;4.820;2023-08-01T04:17:25;4.97;;;1.87;;
14141;SDS011;7151;52.246;4.820;2023-08-01T04:19:51;4.90;;;2.37;;
14141;SDS011;7151;52.246;4.820;2023-08-01T04:22:17;5.27;;;1.80;;
14141;SDS011;7151;52.246;4.820;2023-08-01T04:24:43;5.30;;;2.33;;
14141;SDS011;7151;52.246;4.820;2023-08-01T04:27:09;5.53;;;2.13;;
14141;SDS011;7151;52.246;4.820;2023-08-01T04:29:34;4.87;;;2.17;;
14141;SDS011;7151;52.246;4.820;2023-08-01T04:32:00;4.80;;;1.70;;
14141;SDS011;7151;52.246;4.820;2023-08-01T04:34:25;4.97;;;1.80;;
14141;SDS011;7151;52.246;4.820;2023-08-01T04:36:51;5.07;;;1.83;;
14141;SDS011;7151;52.246;4.820;2023-08-01T04:39:17;2.80;;;1.70;;
14141;SDS011;7151;52.246;4.820;2023-08-01T04:41:42;3.27;;;2.00;;
14141;SDS011;7151;52.246;4.820;2023-08-01T04:44:08;6.93;;;2.23;;
14141;SDS011;7151;52.246;4.820;2023-08-01T04:46:33;4.77;;;2.00;;
14141;SDS011;7151;52.246;4.820;2023-08-01T04:48:59;3.57;;;2.13;;
14141;SDS011;7151;52.246;4.820;2023-08-01T04:51:25;3.87;;;2.10;;
14141;SDS011;7151;52.246;4.820;2023-08-01T04:53:50;3.80;;;1.87;;
14141;SDS011;7151;52.246;4.820;2023-08-01T04:56:16;8.77;;;1.70;;
14141;SDS011;7151;52.246;4.820;2023-08-01T04:58:42;3.20;;;1.60;;
14141;SDS011;7151;52.246;4.820;2023-08-01T05:01:07;5.40;;;1.70;;
14141;SDS011;7151;52.246;4.820;2023-08-01T05:03:33;3.43;;;1.37;;
14141;SDS011;7151;52.246;4.820;2023-08-01T05:05:59;4.87;;;2.13;;
14141;SDS011;7151;52.246;4.820;2023-08-01T05:08:24;3.43;;;1.37;;
14141;SDS011;7151;52.246;4.820;2023-08-01T05:10:50;3.07;;;1.70;;
14141;SDS011;7151;52.246;4.820;2023-08-01T05:13:15;2.67;;;1.70;;
14141;SDS011;7151;52.246;4.820;2023-08-01T05:15:44;2.77;;;1.63;;
14141;SDS011;7151;52.246;4.820;2023-08-01T05:18:10;3.83;;;1.80;;
14141;SDS011;7151;52.246;4.820;2023-08-01T05:20:36;4.03;;;1.50;;
14141;SDS011;7151;52.246;4.820;2023-08-01T05:23:01;3.13;;;1.33;;
14141;SDS011;7151;52.246;4.820;2023-08-01T05:25:27;2.67;;;1.30;;
14141;SDS011;7151;52.246;4.820;2023-08-01T05:27:53;2.83;;;1.73;;
14141;SDS011;7151;52.246;4.820;2023-08-01T05:30:18;2.70;;;1.03;;
14141;SDS011;7151;52.246;4.820;2023-08-01T05:32:44;3.63;;;1.50;;
14141;SDS011;7151;52.246;4.820;2023-08-01T05:35:10;4.13;;;1.70;;
14141;SDS011;7151;52.246;4.820;2023-08-01T05:37:36;4.37;;;1.63;;
14141;SDS011;7151;52.246;4.820;2023-08-01T05:40:02;3.20;;;1.70;;
14141;SDS011;7151;52.246;4.820;2023-08-01T05:42:28;2.57;;;1.23;;
14141;SDS011;7151;52.246;4.820;2023-08-01T05:44:54;4.57;;;1.50;;
14141;SDS011;7151;52.246;4.820;2023-08-01T05:47:19;2.27;;;1.50;;
14141;SDS011;7151;52.246;4.820;2023-08-01T05:49:48;3.10;;;1.50;;
14141;SDS011;7151;52.246;4.820;2023-08-01T05:52:14;3.30;;;1.77;;
14141;SDS011;7151;52.246;4.820;2023-08-01T05:54:40;2.93;;;1.47;;
14141;SDS011;7151;52.246;4.820;2023-08-01T05:57:05;4.07;;;2.00;;
14141;SDS011;7151;52.246;4.820;2023-08-01T05:59:31;3.27;;;1.33;;
14141;SDS011;7151;52.246;4.820;2023-08-01T06:01:56;7.23;;;1.43;;
14141;SDS011;7151;52.246;4.820;2023-08-01T06:04:22;3.07;;;1.23;;
14141;SDS011;7151;52.246;4.820;2023-08-01T06:06:48;3.10;;;1.50;;
14141;SDS011;7151;52.246;4.820;2023-08-01T06:09:13;7.60;;;1.70;;
14141;SDS011;7151;52.246;4.820;2023-08-01T06:11:39;3.70;;;1.60;;
14141;SDS011;7151;52.246;4.820;2023-08-01T06:14:04;2.97;;;2.07;;
14141;SDS011;7151;52.246;4.820;2023-08-01T06:16:30;3.30;;;1.27;;
14141;SDS011;7151;52.246;4.820;2023-08-01T06:18:55;1.97;;;1.30;;
14141;SDS011;7151;52.246;4.820;2023-08-01T06:21:21;2.97;;;1.37;;
14141;SDS011;7151;52.246;4.820;2023-08-01T06:23:47;5.03;;;1.87;;
14141;SDS011;7151;52.246;4.820;2023-08-01T06:26:13;2.43;;;1.73;;
14141;SDS011;7151;52.246;4.820;2023-08-01T06:28:40;2.30;;;1.50;;
14141;SDS011;7151;52.246;4.820;2023-08-01T06:31:06;5.43;;;2.20;;
14141;SDS011;7151;52.246;4.820;2023-08-01T06:33:32;7.23;;;1.70;;
14141;SDS011;7151;52.246;4.820;2023-08-01T06:35:57;4.20;;;1.53;;
14141;SDS011;7151;52.246;4.820;2023-08-01T06:38:23;2.03;;;1.23;;
14141;SDS011;7151;52.246;4.820;2023-08-01T06:40:48;3.67;;;1.30;;
14141;SDS011;7151;52.246;4.820;2023-08-01T06:43:14;4.53;;;1.20;;
14141;SDS011;7151;52.246;4.820;2023-08-01T06:45:39;6.43;;;1.83;;
14141;SDS011;7151;52.246;4.820;2023-08-01T06:48:05;8.27;;;2.33;;
14141;SDS011;7151;52.246;4.820;2023-08-01T06:50:31;2.50;;;1.50;;
14141;SDS011;7151;52.246;4.820;2023-08-01T06:52:56;2.70;;;1.23;;
14141;SDS011;7151;52.246;4.820;2023-08-01T06:55:22;4.50;;;1.60;;
14141;SDS011;7151;52.246;4.820;2023-08-01T06:57:47;1.77;;;1.47;;
14141;SDS011;7151;52.246;4.820;2023-08-01T07:00:13;3.70;;;1.77;;
14141;SDS011;7151;52.246;4.820;2023-08-01T07:02:39;4.30;;;1.40;;
14141;SDS011;7151;52.246;4.820;2023-08-01T07:05:04;5.97;;;1.83;;
14141;SDS011;7151;52.246;4.820;2023-08-01T07:07:30;2.47;;;1.53;;
14141;SDS011;7151;52.246;4.820;2023-08-01T07:09:56;3.90;;;1.30;;
14141;SDS011;7151;52.246;4.820;2023-08-01T07:12:21;2.50;;;1.20;;
14141;SDS011;7151;52.246;4.820;2023-08-01T07:14:47;3.63;;;1.53;;
14141;SDS011;7151;52.246;4.820;2023-08-01T07:17:12;2.87;;;1.40;;
14141;SDS011;7151;52.246;4.820;2023-08-01T07:19:38;4.33;;;1.87;;
14141;SDS011;7151;52.246;4.820;2023-08-01T07:22:04;2.57;;;1.53;;
14141;SDS011;7151;52.246;4.820;2023-08-01T07:24:29;4.40;;;1.83;;
14141;SDS011;7151;52.246;4.820;2023-08-01T07:26:55;8.23;;;2.33;;
14141;SDS011;7151;52.246;4.820;2023-08-01T07:29:20;6.60;;;1.97;;
14141;SDS011;7151;52.246;4.820;2023-08-01T07:31:46;5.03;;;1.80;;
14141;SDS011;7151;52.246;4.820;2023-08-01T07:34:11;2.90;;;1.30;;
14141;SDS011;7151;52.246;4.820;2023-08-01T07:36:37;3.07;;;1.37;;
14141;SDS011;7151;52.246;4.820;2023-08-01T07:39:03;2.70;;;1.63;;
14141;SDS011;7151;52.246;4.820;2023-08-01T07:41:29;2.17;;;1.53;;
14141;SDS011;7151;52.246;4.820;2023-08-01T07:43:54;3.77;;;1.53;;
14141;SDS011;7151;52.246;4.820;2023-08-01T07:46:20;3.07;;;1.43;;
14141;SDS011;7151;52.246;4.820;2023-08-01T07:48:45;3.00;;;1.60;;
14141;SDS011;7151;52.246;4.820;2023-08-01T07:51:11;1.67;;;1.47;;
14141;SDS011;7151;52.246;4.820;2023-08-01T07:53:37;2.40;;;1.83;;
14141;SDS011;7151;52.246;4.820;2023-08-01T07:56:02;3.17;;;1.60;;
14141;SDS011;7151;52.246;4.820;2023-08-01T07:58:29;2.30;;;1.27;;
14141;SDS011;7151;52.246;4.820;2023-08-01T08:00:55;2.53;;;1.53;;
14141;SDS011;7151;52.246;4.820;2023-08-01T08:03:21;3.53;;;1.87;;
14141;SDS011;7151;52.246;4.820;2023-08-01T08:05:48;5.17;;;1.80;;
14141;SDS011;7151;52.246;4.820;2023-08-01T08:08:14;2.70;;;1.50;;
14141;SDS011;7151;52.246;4.820;2023-08-01T08:10:41;1.80;;;1.40;;
14141;SDS011;7151;52.246;4.820;2023-08-01T08:13:07;4.17;;;1.63;;
14141;SDS011;7151;52.246;4.820;2023-08-01T08:15:33;2.17;;;1.23;;
14141;SDS011;7151;52.246;4.820;2023-08-01T08:18:00;3.07;;;1.40;;
14141;SDS011;7151;52.246;4.820;2023-08-01T08:20:29;3.00;;;1.57;;
14141;SDS011;7151;52.246;4.820;2023-08-01T08:22:56;2.50;;;1.70;;
14141;SDS011;7151;52.246;4.820;2023-08-01T08:25:22;4.77;;;1.50;;
14141;SDS011;7151;52.246;4.820;2023-08-01T08:27:51;4.87;;;1.60;;
14141;SDS011;7151;52.246;4.820;2023-08-01T08:30:18;2.43;;;1.30;;
14141;SDS011;7151;52.246;4.820;2023-08-01T08:32:44;1.73;;;1.17;;
14141;SDS011;7151;52.246;4.820;2023-08-01T08:35:11;6.60;;;1.63;;
14141;SDS011;7151;52.246;4.820;2023-08-01T08:37:37;1.43;;;1.33;;
14141;SDS011;7151;52.246;4.820;2023-08-01T08:40:03;2.00;;;1.23;;
14141;SDS011;7151;52.246;4.820;2023-08-01T08:42:30;4.60;;;1.80;;
14141;SDS011;7151;52.246;4.820;2023-08-01T08:44:58;1.87;;;1.37;;
14141;SDS011;7151;52.246;4.820;2023-08-01T08:47:29;4.37;;;1.50;;
14141;SDS011;7151;52.246;4.820;2023-08-01T08:50:00;3.87;;;1.57;;
14141;SDS011;7151;52.246;4.820;2023-08-01T08:52:26;2.27;;;1.40;;
14141;SDS011;7151;52.246;4.820;2023-08-01T08:54:52;3.43;;;1.40;;
14141;SDS011;7151;52.246;4.820;2023-08-01T08:57:20;5.23;;;1.47;;
14141;SDS011;7151;52.246;4.820;2023-08-01T08:59:46;5.60;;;1.70;;
14141;SDS011;7151;52.246;4.820;2023-08-01T09:02:13;3.40;;;2.00;;
14141;SDS011;7151;52.246;4.820;2023-08-01T09:04:41;3.77;;;1.73;;
14141;SDS011;7151;52.246;4.820;2023-08-01T09:07:07;2.23;;;1.47;;
14141;SDS011;7151;52.246;4.820;2023-08-01T09:09:35;1.60;;;1.10;;
14141;SDS011;7151;52.246;4.820;2023-08-01T09:12:01;2.57;;;1.27;;
14141;SDS011;7151;52.246;4.820;2023-08-01T09:14:27;2.67;;;0.90;;
14141;SDS011;7151;52.246;4.820;2023-08-01T09:16:54;2.17;;;1.70;;
14141;SDS011;7151;52.246;4.820;2023-08-01T09:19:24;1.77;;;1.13;;
14141;SDS011;7151;52.246;4.820;2023-08-01T09:21:50;2.93;;;1.13;;
14141;SDS011;7151;52.246;4.820;2023-08-01T09:24:19;1.80;;;1.40;;
14141;SDS011;7151;52.246;4.820;2023-08-01T09:26:47;3.87;;;1.57;;
14141;SDS011;7151;52.246;4.820;2023-08-01T09:29:15;3.70;;;1.47;;
14141;SDS011;7151;52.246;4.820;2023-08-01T09:31:42;2.60;;;1.13;;
14141;SDS011;7151;52.246;4.820;2023-08-01T09:34:18;4.37;;;1.43;;
14141;SDS011;7151;52.246;4.820;2023-08-01T09:36:45;5.53;;;1.40;;
14141;SDS011;7151;52.246;4.820;2023-08-01T09:39:15;10.40;;;1.40;;
14141;SDS011;7151;52.246;4.820;2023-08-01T09:41:42;4.80;;;1.23;;
14141;SDS011;7151;52.246;4.820;2023-08-01T09:44:15;2.87;;;1.53;;
14141;SDS011;7151;52.246;4.820;2023-08-01T09:46:41;2.73;;;1.23;;
14141;SDS011;7151;52.246;4.820;2023-08-01T09:49:09;6.53;;;1.47;;
14141;SDS011;7151;52.246;4.820;2023-08-01T09:51:48;2.80;;;1.47;;
14141;SDS011;7151;52.246;4.820;2023-08-01T09:54:15;4.90;;;1.63;;
14141;SDS011;7151;52.246;4.820;2023-08-01T09:56:42;1.77;;;1.30;;
14141;SDS011;7151;52.246;4.820;2023-08-01T09:59:10;4.90;;;1.27;;
14141;SDS011;7151;52.246;4.820;2023-08-01T10:01:36;3.53;;;1.50;;
14141;SDS011;7151;52.246;4.820;2023-08-01T10:04:04;2.67;;;1.20;;
14141;SDS011;7151;52.246;4.820;2023-08-01T10:06:33;2.90;;;1.40;;
14141;SDS011;7151;52.246;4.820;2023-08-01T10:09:01;1.80;;;0.83;;
14141;SDS011;7151;52.246;4.820;2023-08-01T10:11:27;4.50;;;1.37;;
14141;SDS011;7151;52.246;4.820;2023-08-01T10:13:55;2.83;;;1.17;;
14141;SDS011;7151;52.246;4.820;2023-08-01T10:16:21;1.87;;;1.40;;
14141;SDS011;7151;52.246;4.820;2023-08-01T10:18:47;4.07;;;1.20;;
14141;SDS011;7151;52.246;4.820;2023-08-01T10:21:15;3.23;;;1.17;;
14141;SDS011;7151;52.246;4.820;2023-08-01T10:23:42;2.07;;;1.33;;
14141;SDS011;7151;52.246;4.820;2023-08-01T10:26:09;1.67;;;1.40;;
14141;SDS011;7151;52.246;4.820;2023-08-01T10:28:37;4.17;;;1.90;;
14141;SDS011;7151;52.246;4.820;2023-08-01T10:31:21;4.80;;;2.07;;
14141;SDS011;7151;52.246;4.820;2023-08-01T10:33:48;1.30;;;1.13;;
14141;SDS011;7151;52.246;4.820;2023-08-01T10:36:21;1.40;;;1.23;;
14141;SDS011;7151;52.246;4.820;2023-08-01T10:38:52;1.73;;;1.10;;
14141;SDS011;7151;52.246;4.820;2023-08-01T10:41:19;5.90;;;1.77;;
14141;SDS011;7151;52.246;4.820;2023-08-01T10:49:38;3.47;;;1.40;;
14141;SDS011;7151;52.246;4.820;2023-08-01T10:52:15;2.63;;;1.43;;
14141;SDS011;7151;52.246;4.820;2023-08-01T10:54:42;2.17;;;1.10;;
14141;SDS011;7151;52.246;4.820;2023-08-01T10:57:08;2.97;;;1.20;;
14141;SDS011;7151;52.246;4.820;2023-08-01T10:59:40;1.67;;;0.90;;
14141;SDS011;7151;52.246;4.820;2023-08-01T11:02:07;1.83;;;1.27;;
14141;SDS011;7151;52.246;4.820;2023-08-01T11:04:32;1.83;;;0.93;;
14141;SDS011;7151;52.246;4.820;2023-08-01T11:06:58;2.80;;;1.13;;
14141;SDS011;7151;52.246;4.820;2023-08-01T11:09:24;2.33;;;1.40;;
14141;SDS011;7151;52.246;4.820;2023-08-01T11:11:52;2.97;;;1.17;;
14141;SDS011;7151;52.246;4.820;2023-08-01T11:14:20;1.47;;;1.10;;
14141;SDS011;7151;52.246;4.820;2023-08-01T11:16:47;2.33;;;1.03;;
14141;SDS011;7151;52.246;4.820;2023-08-01T11:21:49;4.10;;;1.10;;
14141;SDS011;7151;52.246;4.820;2023-08-01T11:24:17;6.00;;;1.30;;
14141;SDS011;7151;52.246;4.820;2023-08-01T11:26:44;2.83;;;1.47;;
14141;SDS011;7151;52.246;4.820;2023-08-01T11:29:11;2.13;;;0.90;;
14141;SDS011;7151;52.246;4.820;2023-08-01T11:31:37;2.63;;;1.23;;
14141;SDS011;7151;52.246;4.820;2023-08-01T11:34:03;5.37;;;1.50;;
14141;SDS011;7151;52.246;4.820;2023-08-01T11:36:29;4.23;;;1.53;;
14141;SDS011;7151;52.246;4.820;2023-08-01T11:38:58;5.57;;;1.13;;
14141;SDS011;7151;52.246;4.820;2023-08-01T11:41:28;2.60;;;1.30;;
14141;SDS011;7151;52.246;4.820;2023-08-01T11:43:55;3.20;;;1.30;;
14141;SDS011;7151;52.246;4.820;2023-08-01T11:46:29;5.03;;;1.40;;
14141;SDS011;7151;52.246;4.820;2023-08-01T11:48:57;1.27;;;0.90;;
14141;SDS011;7151;52.246;4.820;2023-08-01T11:51:23;3.83;;;1.23;;
14141;SDS011;7151;52.246;4.820;2023-08-01T11:53:59;1.57;;;1.03;;
14141;SDS011;7151;52.246;4.820;2023-08-01T11:56:29;3.20;;;1.73;;
14141;SDS011;7151;52.246;4.820;2023-08-01T11:58:58;3.80;;;1.10;;
14141;SDS011;7151;52.246;4.820;2023-08-01T12:01:23;3.27;;;1.20;;
14141;SDS011;7151;52.246;4.820;2023-08-01T12:03:50;3.87;;;1.63;;
14141;SDS011;7151;52.246;4.820;2023-08-01T12:06:18;3.70;;;1.50;;
14141;SDS011;7151;52.246;4.820;2023-08-01T12:08:46;2.00;;;1.03;;
14141;SDS011;7151;52.246;4.820;2023-08-01T12:11:22;7.33;;;1.20;;
14141;SDS011;7151;52.246;4.820;2023-08-01T12:16:30;2.00;;;0.83;;
14141;SDS011;7151;52.246;4.820;2023-08-01T12:18:56;2.13;;;0.90;;
14141;SDS011;7151;52.246;4.820;2023-08-01T12:21:22;1.27;;;0.83;;
14141;SDS011;7151;52.246;4.820;2023-08-01T12:23:48;1.17;;;0.80;;
14141;SDS011;7151;52.246;4.820;2023-08-01T12:26:13;2.90;;;0.70;;
14141;SDS011;7151;52.246;4.820;2023-08-01T12:28:39;1.00;;;0.80;;
14141;SDS011;7151;52.246;4.820;2023-08-01T12:31:05;2.30;;;0.80;;
14141;SDS011;7151;52.246;4.820;2023-08-01T12:33:30;1.63;;;1.13;;
14141;SDS011;7151;52.246;4.820;2023-08-01T12:35:57;1.47;;;1.10;;
14141;SDS011;7151;52.246;4.820;2023-08-01T12:38:23;1.77;;;0.90;;
14141;SDS011;7151;52.246;4.820;2023-08-01T12:40:49;2.77;;;1.20;;
14141;SDS011;7151;52.246;4.820;2023-08-01T12:43:14;2.97;;;0.83;;
14141;SDS011;7151;52.246;4.820;2023-08-01T12:45:41;2.47;;;1.00;;
14141;SDS011;7151;52.246;4.820;2023-08-01T12:48:07;3.23;;;1.20;;
14141;SDS011;7151;52.246;4.820;2023-08-01T12:50:32;5.53;;;1.47;;
14141;SDS011;7151;52.246;4.820;2023-08-01T12:52:58;2.10;;;1.20;;
14141;SDS011;7151;52.246;4.820;2023-08-01T12:55:24;4.13;;;1.40;;
14141;SDS011;7151;52.246;4.820;2023-08-01T12:57:49;7.60;;;1.50;;
14141;SDS011;7151;52.246;4.820;2023-08-01T13:00:15;2.40;;;1.03;;
14141;SDS011;7151;52.246;4.820;2023-08-01T13:02:41;4.20;;;1.27;;
14141;SDS011;7151;52.246;4.820;2023-08-01T13:05:06;3.60;;;1.30;;
14141;SDS011;7151;52.246;4.820;2023-08-01T13:07:32;5.47;;;1.40;;
14141;SDS011;7151;52.246;4.820;2023-08-01T13:09:59;3.27;;;1.47;;
14141;SDS011;7151;52.246;4.820;2023-08-01T13:12:27;3.60;;;1.63;;
14141;SDS011;7151;52.246;4.820;2023-08-01T13:14:53;3.53;;;1.53;;
14141;SDS011;7151;52.246;4.820;2023-08-01T13:17:18;2.13;;;1.50;;
14141;SDS011;7151;52.246;4.820;2023-08-01T13:19:44;2.30;;;1.23;;
14141;SDS011;7151;52.246;4.820;2023-08-01T13:22:09;4.03;;;1.13;;
14141;SDS011;7151;52.246;4.820;2023-08-01T13:24:35;2.70;;;1.60;;
14141;SDS011;7151;52.246;4.820;2023-08-01T13:27:01;2.90;;;1.10;;
14141;SDS011;7151;52.246;4.820;2023-08-01T13:29:26;3.43;;;1.73;;
14141;SDS011;7151;52.246;4.820;2023-08-01T13:31:52;7.60;;;1.63;;
14141;SDS011;7151;52.246;4.820;2023-08-01T13:34:18;4.87;;;1.37;;
14141;SDS011;7151;52.246;4.820;2023-08-01T13:36:44;2.80;;;1.03;;
14141;SDS011;7151;52.246;4.820;2023-08-01T13:39:09;3.60;;;0.93;;
14141;SDS011;7151;52.246;4.820;2023-08-01T13:41:35;3.13;;;0.90;;
14141;SDS011;7151;52.246;4.820;2023-08-01T13:44:01;2.33;;;1.00;;
14141;SDS011;7151;52.246;4.820;2023-08-01T13:46:27;2.23;;;0.90;;
14141;SDS011;7151;52.246;4.820;2023-08-01T13:48:52;2.60;;;0.93;;
14141;SDS011;7151;52.246;4.820;2023-08-01T13:51:18;2.80;;;0.97;;
14141;SDS011;7151;52.246;4.820;2023-08-01T13:53:43;2.60;;;1.00;;
14141;SDS011;7151;52.246;4.820;2023-08-01T13:56:09;2.47;;;1.00;;
14141;SDS011;7151;52.246;4.820;2023-08-01T13:58:36;1.57;;;0.73;;
14141;SDS011;7151;52.246;4.820;2023-08-01T14:01:06;1.27;;;0.87;;
14141;SDS011;7151;52.246;4.820;2023-08-01T14:03:33;2.07;;;0.83;;
14141;SDS011;7151;52.246;4.820;2023-08-01T14:06:06;1.63;;;0.80;;
14141;SDS011;7151;52.246;4.820;2023-08-01T14:08:36;3.10;;;0.77;;
14141;SDS011;7151;52.246;4.820;2023-08-01T14:11:05;3.07;;;1.10;;
14141;SDS011;7151;52.246;4.820;2023-08-01T14:13:32;1.30;;;0.87;;
14141;SDS011;7151;52.246;4.820;2023-08-01T14:15:59;3.17;;;1.10;;
14141;SDS011;7151;52.246;4.820;2023-08-01T14:18:26;3.00;;;0.73;;
14141;SDS011;7151;52.246;4.820;2023-08-01T14:20:55;4.20;;;1.23;;
14141;SDS011;7151;52.246;4.820;2023-08-01T14:23:21;2.67;;;0.70;;
14141;SDS011;7151;52.246;4.820;2023-08-01T14:25:47;0.80;;;0.50;;
14141;SDS011;7151;52.246;4.820;2023-08-01T14:28:12;0.70;;;0.70;;
14141;SDS011;7151;52.246;4.820;2023-08-01T14:30:38;1.63;;;0.73;;
14141;SDS011;7151;52.246;4.820;2023-08-01T14:33:07;2.47;;;0.80;;
14141;SDS011;7151;52.246;4.820;2023-08-01T14:35:37;4.40;;;0.80;;
14141;SDS011;7151;52.246;4.820;2023-08-01T14:38:03;3.30;;;1.00;;
14141;SDS011;7151;52.246;4.820;2023-08-01T14:40:29;2.80;;;1.10;;
14141;SDS011;7151;52.246;4.820;2023-08-01T14:42:54;3.37;;;1.57;;
14141;SDS011;7151;52.246;4.820;2023-08-01T14:45:20;2.10;;;1.20;;
14141;SDS011;7151;52.246;4.820;2023-08-01T14:47:46;2.23;;;1.03;;
14141;SDS011;7151;52.246;4.820;2023-08-01T14:50:13;3.50;;;1.23;;
14141;SDS011;7151;52.246;4.820;2023-08-01T14:52:39;6.43;;;1.97;;
14141;SDS011;7151;52.246;4.820;2023-08-01T14:55:06;3.00;;;1.63;;
14141;SDS011;7151;52.246;4.820;2023-08-01T14:57:32;1.63;;;1.10;;
14141;SDS011;7151;52.246;4.820;2023-08-01T14:59:58;3.80;;;1.40;;
14141;SDS011;7151;52.246;4.820;2023-08-01T15:02:24;1.93;;;1.10;;
14141;SDS011;7151;52.246;4.820;2023-08-01T15:04:53;3.47;;;1.40;;
14141;SDS011;7151;52.246;4.820;2023-08-01T15:07:23;3.20;;;1.10;;